Time;durP1;ratioP1;P1;durP2;ratioP2;P2;SDS_P1;SDS_P2;PMS_P1;PMS_P2;Temp;Humidity;BMP_temperature;BMP_pressure;BME280_temperature;BME280_humidity;BME280_pressure;Samples;Min_cycle;Max_cycle;Signal;HPM_P1;HPM_P2
2024/03/19 00:01:01;;;;;;;7.70;4.13;;;;;;;1.26;64.92;100529.27;1422622;91;21556;-73
2024/03/19 00:03:28;;;;;;;6.90;4.10;;;;;;;1.29;64.77;100524.35;1470309;88;21689;-74
2024/03/19 00:05:56;;;;;;;6.53;2.70;;;;;;;1.29;64.83;100523.05;1477175;88;21642;-73
2024/03/19 00:08:24;;;;;;;8.57;4.67;;;;;;;1.27;64.84;100522.31;1466388;88;22547;-74
2024/03/19 00:10:52;;;;;;;3.80;2.50;;;;;;;1.20;65.06;100528.31;1469470;88;21626;-73
2024/03/19 00:13:19;;;;;;;4.53;2.67;;;;;;;1.09;65.58;100534.14;1468178;88;21537;-73
2024/03/19 00:15:50;;;;;;;5.50;3.47;;;;;;;1.08;65.51;100531.14;1448728;90;21652;-74
2024/03/19 00:18:17;;;;;;;5.67;2.73;;;;;;;1.05;65.38;100529.17;1445664;90;21724;-73
2024/03/19 00:20:44;;;;;;;7.07;4.07;;;;;;;1.09;65.21;100532.84;1423822;91;21815;-73
2024/03/19 00:23:12;;;;;;;8.77;5.03;;;;;;;1.13;65.30;100530.43;1470936;88;21559;-74
2024/03/19 00:25:39;;;;;;;11.13;6.70;;;;;;;1.18;65.55;100525.41;1443038;90;22729;-73
2024/03/19 00:28:07;;;;;;;10.20;7.13;;;;;;;1.22;65.24;100517.81;1447479;90;22154;-72
2024/03/19 00:30:34;;;;;;;8.03;5.23;;;;;;;1.26;65.04;100516.23;1424644;92;22456;-73
2024/03/19 00:33:01;;;;;;;6.50;4.40;;;;;;;1.27;64.92;100515.33;1443571;88;21493;-73
2024/03/19 00:35:29;;;;;;;6.40;4.27;;;;;;;1.30;64.63;100516.92;1465203;88;22217;-73
2024/03/19 00:37:56;;;;;;;5.67;3.27;;;;;;;1.29;65.32;100512.14;1468523;88;21950;-74
2024/03/19 00:40:23;;;;;;;6.43;3.40;;;;;;;1.31;65.15;100518.13;1466935;88;22464;-74
2024/03/19 00:42:51;;;;;;;9.60;4.40;;;;;;;1.28;66.30;100517.47;1475573;88;21609;-73
2024/03/19 00:45:18;;;;;;;8.83;4.50;;;;;;;1.26;65.76;100516.23;1464962;88;22281;-73
2024/03/19 00:47:46;;;;;;;8.40;4.20;;;;;;;1.24;65.94;100516.80;1470342;88;21647;-74
2024/03/19 00:50:13;;;;;;;9.13;4.47;;;;;;;1.25;66.19;100517.17;1438415;90;21592;-73
2024/03/19 00:52:40;;;;;;;9.10;4.43;;;;;;;1.27;66.50;100516.63;1473770;88;21611;-73
2024/03/19 00:55:08;;;;;;;7.30;4.40;;;;;;;1.29;66.65;100516.06;1432843;90;21659;-72
2024/03/19 00:57:36;;;;;;;13.77;8.07;;;;;;;1.31;66.80;100511.61;1470247;88;21595;-73
2024/03/19 01:00:10;;;;;;;9.33;4.80;;;;;;;1.34;66.47;100514.51;1465765;88;21790;-73
2024/03/19 01:02:44;;;;;;;6.80;4.57;;;;;;;1.30;66.80;100513.02;1466962;88;21751;-73
2024/03/19 01:05:12;;;;;;;8.97;4.37;;;;;;;1.27;67.32;100511.88;1444296;90;21585;-74
2024/03/19 01:07:42;;;;;;;8.27;5.63;;;;;;;1.27;67.57;100511.42;1427645;91;21880;-74
2024/03/19 01:10:11;;;;;;;10.80;6.07;;;;;;;1.17;68.67;100508.09;1465804;88;21595;-73
2024/03/19 01:12:40;;;;;;;11.07;6.77;;;;;;;1.08;69.24;100509.45;1468482;88;22146;-73
2024/03/19 01:15:13;;;;;;;13.37;7.60;;;;;;;1.06;69.72;100502.17;1465359;88;21565;-73
2024/03/19 01:17:39;;;;;;;12.23;7.37;;;;;;;1.07;69.23;100498.66;1469281;88;21792;-73
2024/03/19 01:20:11;;;;;;;11.00;7.87;;;;;;;1.04;69.94;100505.34;1470303;88;22388;-75
2024/03/19 01:22:40;;;;;;;11.30;7.30;;;;;;;0.99;71.00;100504.28;1468839;88;21655;-73
2024/03/19 01:25:07;;;;;;;17.33;10.67;;;;;;;0.96;71.54;100508.83;1466323;88;21849;-73
2024/03/19 01:27:35;;;;;;;12.47;7.63;;;;;;;0.92;70.82;100508.14;1470998;88;21484;-73
2024/03/19 01:30:03;;;;;;;15.27;8.23;;;;;;;0.86;72.14;100506.73;1474035;88;21750;-73
2024/03/19 01:32:30;;;;;;;13.63;9.37;;;;;;;0.84;72.00;100505.13;1452950;88;21603;-73
2024/03/19 01:34:57;;;;;;;13.83;8.97;;;;;;;0.79;72.52;100505.37;1443347;90;23238;-73
2024/03/19 01:37:25;;;;;;;13.27;9.20;;;;;;;0.75;73.62;100499.09;1441313;90;21592;-73
2024/03/19 01:39:53;;;;;;;18.43;10.40;;;;;;;0.69;74.03;100506.78;1426938;91;21640;-73
2024/03/19 01:42:20;;;;;;;14.23;8.90;;;;;;;0.65;74.19;100496.16;1406114;92;22448;-73
2024/03/19 01:44:47;;;;;;;16.23;10.07;;;;;;;0.60;74.87;100496.39;1456452;88;21702;-74
2024/03/19 01:47:14;;;;;;;17.47;10.00;;;;;;;0.60;74.69;100491.19;1462604;88;22549;-73
2024/03/19 01:49:43;;;;;;;15.77;10.73;;;;;;;0.61;74.15;100495.95;1452775;88;21531;-73
2024/03/19 01:52:10;;;;;;;16.47;10.57;;;;;;;0.63;74.00;100491.48;1474476;88;21555;-73
2024/03/19 01:54:37;;;;;;;15.57;9.87;;;;;;;0.64;74.03;100487.97;1467735;88;21731;-73
2024/03/19 01:57:06;;;;;;;20.10;11.13;;;;;;;0.55;75.32;100484.56;1442670;90;21479;-73
2024/03/19 01:59:34;;;;;;;18.40;10.83;;;;;;;0.56;74.72;100490.14;1441991;90;21638;-73
2024/03/19 02:02:02;;;;;;;18.13;10.30;;;;;;;0.54;74.68;100488.08;1421735;90;21888;-72
2024/03/19 02:04:29;;;;;;;20.77;12.43;;;;;;;0.39;76.62;100482.77;1471845;88;21598;-73
2024/03/19 02:06:56;;;;;;;19.20;10.40;;;;;;;0.30;77.39;100479.34;1471760;88;21624;-73
2024/03/19 02:09:23;;;;;;;18.47;11.20;;;;;;;0.26;77.52;100479.14;1475702;88;21565;-74
2024/03/19 02:11:50;;;;;;;19.37;11.97;;;;;;;0.19;79.21;100481.67;1464483;88;21655;-74
2024/03/19 02:14:19;;;;;;;22.13;12.93;;;;;;;0.18;78.55;100482.60;1463666;88;22164;-74
2024/03/19 02:16:46;;;;;;;16.63;10.67;;;;;;;0.17;79.13;100480.47;1469041;88;21429;-74
2024/03/19 02:19:13;;;;;;;17.83;11.07;;;;;;;0.12;80.87;100485.53;1467275;88;22794;-73
2024/03/19 02:21:41;;;;;;;16.37;9.33;;;;;;;0.11;80.75;100489.03;1467337;88;21751;-73
2024/03/19 02:24:08;;;;;;;17.17;11.67;;;;;;;0.07;82.70;100484.45;1452917;89;22614;-74
2024/03/19 02:26:35;;;;;;;18.20;10.23;;;;;;;0.07;82.97;100488.36;1443246;90;21731;-73
2024/03/19 02:29:03;;;;;;;17.60;9.37;;;;;;;0.01;85.26;100489.14;1432509;90;21525;-73
2024/03/19 02:31:30;;;;;;;15.70;10.13;;;;;;;0.00;85.65;100492.20;1438753;90;21753;-73
2024/03/19 02:33:57;;;;;;;15.13;10.07;;;;;;;-0.06;87.85;100485.98;1439244;90;21722;-73
2024/03/19 02:36:25;;;;;;;19.87;11.37;;;;;;;-0.08;89.52;100485.25;1441079;90;22639;-74
2024/03/19 02:38:53;;;;;;;17.70;11.40;;;;;;;-0.07;88.59;100486.45;1441113;90;21634;-74
2024/03/19 02:41:20;;;;;;;16.02;10.18;;;;;;;-0.09;89.89;100487.45;1423694;90;22141;-74
2024/03/19 02:43:47;;;;;;;16.53;10.07;;;;;;;-0.05;90.09;100491.59;1471358;88;21519;-74
2024/03/19 02:46:14;;;;;;;19.13;11.20;;;;;;;-0.04;90.16;100490.66;1471338;88;22502;-73
2024/03/19 02:48:42;;;;;;;19.10;10.37;;;;;;;-0.05;90.63;100492.43;1471903;88;21464;-74
2024/03/19 02:51:09;;;;;;;14.63;9.47;;;;;;;-0.02;88.59;100500.08;1456996;88;22740;-74
2024/03/19 02:53:37;;;;;;;13.67;9.33;;;;;;;0.03;87.47;100500.29;1447005;90;21398;-73
2024/03/19 02:56:05;;;;;;;15.03;9.93;;;;;;;-0.02;87.78;100499.24;1423819;92;21778;-73
2024/03/19 02:58:33;;;;;;;15.05;9.50;;;;;;;-0.03;85.99;100501.01;1471838;88;21610;-73
2024/03/19 03:01:01;;;;;;;22.63;12.27;;;;;;;-0.05;86.86;100499.40;1464984;88;21346;-73
2024/03/19 03:03:28;;;;;;;16.03;10.53;;;;;;;-0.05;84.67;100504.14;1474887;88;21633;-73
2024/03/19 03:05:55;;;;;;;16.60;9.90;;;;;;;-0.03;84.15;100498.41;1459633;88;22029;-73
2024/03/19 03:08:23;;;;;;;14.28;9.78;;;;;;;-0.03;85.02;100497.11;1471912;88;21434;-73
2024/03/19 03:10:50;;;;;;;17.93;10.97;;;;;;;-0.04;85.45;100505.81;1474635;88;21368;-72
2024/03/19 03:13:17;;;;;;;15.13;9.50;;;;;;;-0.06;86.51;100500.30;1466691;88;21692;-74
2024/03/19 03:15:45;;;;;;;20.75;10.75;;;;;;;-0.06;86.75;100505.50;1474903;88;21568;-73
2024/03/19 03:18:12;;;;;;;17.40;11.17;;;;;;;-0.06;86.44;100501.17;1476209;88;21482;-74
2024/03/19 03:20:39;;;;;;;16.70;10.57;;;;;;;-0.05;87.67;100502.84;1472202;88;21575;-74
2024/03/19 03:23:07;;;;;;;17.87;9.80;;;;;;;-0.05;88.00;100507.20;1475776;88;21650;-73
2024/03/19 03:25:34;;;;;;;15.48;9.95;;;;;;;-0.08;90.86;100500.39;1447283;90;21282;-74
2024/03/19 03:28:03;;;;;;;15.85;10.40;;;;;;;-0.12;97.47;100506.66;1472865;88;22218;-74
2024/03/19 03:30:30;;;;;;;16.40;10.57;;;;;;;-0.13;100.00;100509.34;1468956;88;21375;-73
2024/03/19 03:32:58;;;;;;;18.23;9.93;;;;;;;-0.04;97.71;100507.11;1470835;88;22694;-74
2024/03/19 03:35:25;;;;;;;17.07;12.03;;;;;;;-0.01;100.00;100508.72;1469661;88;21643;-74
2024/03/19 03:37:52;;;;;;;17.47;11.67;;;;;;;0.05;100.00;100507.56;1466644;88;21555;-73
2024/03/19 03:40:22;;;;;;;19.30;10.90;;;;;;;0.15;100.00;100505.72;1468819;88;21943;-74
2024/03/19 03:42:50;;;;;;;14.47;10.95;;;;;;;0.24;98.60;100504.41;1464933;88;21730;-74
2024/03/19 03:45:20;;;;;;;17.57;11.53;;;;;;;0.28;99.91;100505.91;1481107;88;21391;-75
2024/03/19 03:47:48;;;;;;;16.50;10.78;;;;;;;0.32;100.00;100507.92;1475719;88;21640;-74
2024/03/19 03:50:16;;;;;;;23.17;11.47;;;;;;;0.38;100.00;100504.99;1468572;88;21453;-74
2024/03/19 03:52:44;;;;;;;18.77;11.23;;;;;;;0.47;100.00;100508.41;1462322;88;21746;-74
2024/03/19 03:55:11;;;;;;;21.07;11.30;;;;;;;0.54;100.00;100510.21;1473734;88;21613;-73
2024/03/19 03:57:45;;;;;;;17.20;11.47;;;;;;;0.64;100.00;100511.42;1467584;88;21480;-74
2024/03/19 04:00:11;;;;;;;17.23;9.83;;;;;;;0.70;100.00;100511.09;1463359;88;21823;-76
2024/03/19 04:02:42;;;;;;;17.83;9.93;;;;;;;0.82;98.75;100510.41;1472664;88;21618;-75
2024/03/19 04:05:09;;;;;;;16.50;9.75;;;;;;;0.88;98.07;100511.37;1466190;88;21777;-76
2024/03/19 04:07:39;;;;;;;14.70;9.20;;;;;;;0.90;98.04;100516.52;1468284;88;22137;-75
2024/03/19 04:10:13;;;;;;;15.87;10.33;;;;;;;0.97;96.67;100515.72;1435498;90;22590;-75
2024/03/19 04:12:41;;;;;;;15.83;9.67;;;;;;;1.03;95.48;100526.63;1436237;90;21687;-75
2024/03/19 04:15:11;;;;;;;18.63;10.73;;;;;;;1.08;94.72;100526.39;1443151;90;22609;-74
2024/03/19 04:17:57;;;;;;;14.37;9.63;;;;;;;1.12;94.04;100522.67;1432532;90;21736;-74
2024/03/19 04:20:24;;;;;;;16.83;10.27;;;;;;;1.13;94.00;100528.29;1471019;88;22502;-75
2024/03/19 04:22:52;;;;;;;14.53;9.80;;;;;;;1.18;92.33;100527.58;1470258;88;21815;-74
2024/03/19 04:25:19;;;;;;;21.23;10.57;;;;;;;1.24;91.56;100535.06;1443220;90;22583;-75
2024/03/19 04:27:46;;;;;;;16.60;11.27;;;;;;;1.26;90.64;100536.26;1431876;90;22528;-75
2024/03/19 04:30:13;;;;;;;17.47;11.40;;;;;;;1.26;89.70;100524.05;1465356;88;21667;-75
2024/03/19 04:32:41;;;;;;;15.27;11.23;;;;;;;1.30;89.13;100528.19;1450417;88;22552;-73
2024/03/19 04:35:08;;;;;;;15.43;9.70;;;;;;;1.28;89.02;100528.73;1470677;88;21861;-74
2024/03/19 04:37:36;;;;;;;16.70;9.93;;;;;;;1.26;89.23;100529.27;1449313;90;22751;-74
2024/03/19 04:40:04;;;;;;;17.30;10.23;;;;;;;1.26;88.99;100541.00;1447554;89;21729;-74
2024/03/19 04:42:31;;;;;;;14.90;9.93;;;;;;;1.23;89.35;100536.44;1438867;90;21734;-75
2024/03/19 04:44:59;;;;;;;15.13;10.87;;;;;;;1.20;90.08;100536.60;1437767;90;21582;-74
2024/03/19 04:47:26;;;;;;;15.67;9.70;;;;;;;1.17;90.27;100540.22;1467857;88;21715;-74
2024/03/19 04:49:53;;;;;;;13.27;9.73;;;;;;;1.13;90.95;100543.93;1461281;88;22507;-74
2024/03/19 04:52:21;;;;;;;13.37;8.77;;;;;;;1.06;92.67;100542.57;1444555;90;21738;-74
2024/03/19 04:54:48;;;;;;;21.27;10.57;;;;;;;1.02;93.46;100544.98;1469578;88;21485;-74
2024/03/19 04:57:16;;;;;;;15.80;10.43;;;;;;;1.05;92.75;100547.42;1461619;88;22488;-74
2024/03/19 04:59:43;;;;;;;18.97;11.47;;;;;;;0.99;94.71;100552.97;1467942;88;21646;-74
2024/03/19 05:02:11;;;;;;;15.27;9.97;;;;;;;0.95;95.26;100551.00;1470663;88;21647;-74
2024/03/19 05:04:38;;;;;;;15.33;10.00;;;;;;;0.97;95.32;100557.41;1464997;88;21761;-74
2024/03/19 05:07:05;;;;;;;15.83;10.57;;;;;;;0.85;97.76;100555.01;1470775;88;21617;-76
2024/03/19 05:09:32;;;;;;;15.67;10.43;;;;;;;0.92;96.24;100562.02;1469246;88;21403;-76
2024/03/19 05:11:59;;;;;;;15.07;10.07;;;;;;;0.89;96.30;100567.80;1467816;88;21590;-75
2024/03/19 05:14:26;;;;;;;14.20;9.43;;;;;;;0.90;96.23;100575.98;1468284;88;21619;-76
2024/03/19 05:16:53;;;;;;;13.43;9.30;;;;;;;0.93;95.29;100576.30;1439206;90;21708;-75
2024/03/19 05:19:21;;;;;;;14.90;10.30;;;;;;;0.90;96.06;100582.97;1473497;88;21759;-76
2024/03/19 05:21:48;;;;;;;15.70;9.97;;;;;;;0.96;94.22;100582.64;1473414;88;21565;-75
2024/03/19 05:24:15;;;;;;;15.10;9.60;;;;;;;0.96;94.16;100587.02;1470528;88;21412;-75
2024/03/19 05:26:42;;;;;;;15.30;10.00;;;;;;;0.93;95.63;100581.97;1472240;88;21575;-75
2024/03/19 05:29:10;;;;;;;17.90;9.93;;;;;;;0.95;94.42;100586.18;1469000;88;22630;-75
2024/03/19 05:31:37;;;;;;;18.00;11.37;;;;;;;0.95;94.86;100580.10;1473431;88;21462;-76
2024/03/19 05:34:04;;;;;;;14.23;10.20;;;;;;;0.97;94.87;100587.38;1468658;88;21664;-74
2024/03/19 05:36:32;;;;;;;20.17;9.67;;;;;;;1.00;95.95;100585.91;1464605;88;21650;-75
2024/03/19 05:38:59;;;;;;;15.10;10.00;;;;;;;1.05;95.21;100586.05;1468652;88;21672;-75
2024/03/19 05:41:26;;;;;;;15.67;10.77;;;;;;;1.13;95.28;100584.34;1463547;88;21650;-75
2024/03/19 05:43:53;;;;;;;20.27;10.20;;;;;;;1.19;96.73;100587.91;1473583;88;21612;-75
2024/03/19 05:46:22;;;;;;;15.80;10.77;;;;;;;1.18;96.05;100590.16;1453623;88;22642;-75
2024/03/19 05:48:49;;;;;;;15.50;10.60;;;;;;;1.32;94.39;100590.23;1467591;88;21608;-75
2024/03/19 05:51:16;;;;;;;18.50;11.30;;;;;;;1.38;93.70;100601.23;1459866;88;21604;-75
2024/03/19 05:53:43;;;;;;;15.53;11.13;;;;;;;1.42;93.27;100599.69;1455800;88;21772;-75
2024/03/19 05:56:11;;;;;;;17.53;11.13;;;;;;;1.48;92.68;100598.51;1469332;88;21646;-75
2024/03/19 05:58:38;;;;;;;15.00;10.33;;;;;;;1.59;91.45;100601.36;1466200;88;21568;-76
2024/03/19 06:01:05;;;;;;;16.77;10.67;;;;;;;1.61;89.88;100598.18;1466471;88;22577;-75
2024/03/19 06:03:33;;;;;;;16.17;10.47;;;;;;;1.68;89.33;100593.48;1470564;88;21721;-75
2024/03/19 06:06:11;;;;;;;13.90;9.40;;;;;;;1.77;89.61;100594.26;1472549;88;22548;-74
2024/03/19 06:08:31;;;;;;;;;;;;;;;1.79;89.22;100601.55;1467843;88;21710;-75
2024/03/19 06:10:59;;;;;;;14.43;9.33;;;;;;;1.95;88.99;100603.63;1471515;88;20366;-75
2024/03/19 06:13:27;;;;;;;14.83;10.00;;;;;;;2.00;87.04;100611.21;1476067;88;22656;-75
2024/03/19 06:15:54;;;;;;;14.53;8.97;;;;;;;2.13;85.69;100608.28;1465001;88;21810;-74
2024/03/19 06:18:22;;;;;;;18.40;8.80;;;;;;;2.13;84.57;100611.33;1447269;90;22797;-76
2024/03/19 06:20:50;;;;;;;17.47;9.93;;;;;;;2.06;84.12;100615.24;1423102;92;22822;-74
2024/03/19 06:23:17;;;;;;;15.07;10.67;;;;;;;2.27;85.29;100615.28;1465087;88;21747;-74
2024/03/19 06:25:44;;;;;;;14.13;8.63;;;;;;;2.37;83.44;100620.83;1466590;88;23083;-73
2024/03/19 06:28:11;;;;;;;17.23;8.90;;;;;;;2.67;81.39;100610.30;1445400;90;21792;-74
2024/03/19 06:30:39;;;;;;;11.83;8.43;;;;;;;2.67;81.39;100610.30;1444405;90;22746;-74
2024/03/19 06:33:07;;;;;;;15.13;10.10;;;;;;;2.84;79.49;100614.52;1471574;88;21854;-75
2024/03/19 06:38:04;;;;;;;13.73;9.30;;;;;;;3.19;74.91;100606.27;1490791;85;25893;-75
2024/03/19 06:40:33;;;;;;;13.57;9.30;;;;;;;3.19;74.91;100606.27;1470080;87;22548;-75
2024/03/19 06:43:00;;;;;;;14.47;10.20;;;;;;;3.36;75.26;100606.87;1450018;88;22189;-74
2024/03/19 06:45:33;;;;;;;17.07;10.17;;;;;;;3.48;73.61;100615.76;1471925;87;22291;-75
2024/03/19 06:47:57;;;;;;;11.48;8.30;;;;;;;3.52;71.15;100606.77;1452181;88;24740;-74
2024/03/19 06:50:24;;;;;;;13.30;8.70;;;;;;;3.54;69.93;100624.53;1470445;88;21507;-74
2024/03/19 06:52:50;;;;;;;14.70;9.37;;;;;;;3.49;70.52;100624.45;1473665;87;22347;-73
2024/03/19 06:57:57;;;;;;;13.83;8.93;;;;;;;3.43;70.02;100619.13;1511668;85;22751;-74
2024/03/19 07:00:23;;;;;;;14.40;10.40;;;;;;;3.38;69.16;100627.25;1482071;86;22157;-75
2024/03/19 07:02:49;;;;;;;16.10;9.93;;;;;;;3.53;69.28;100628.53;1436120;89;22287;-76
2024/03/19 07:05:16;;;;;;;17.40;8.30;;;;;;;3.63;69.01;100632.26;1425843;89;22267;-77
2024/03/19 07:07:42;;;;;;;13.27;9.13;;;;;;;3.65;68.52;100633.45;1439331;89;22154;-77
2024/03/19 07:10:12;;;;;;;13.63;8.77;;;;;;;3.63;68.28;100627.50;1438195;89;22152;-76
2024/03/19 07:12:41;;;;;;;16.70;8.97;;;;;;;3.74;68.78;100630.23;1349359;92;22219;-75
2024/03/19 07:15:14;;;;;;;13.13;9.23;;;;;;;3.83;68.95;100633.59;1527679;90;22080;-77
2024/03/19 07:17:41;;;;;;;15.20;10.20;;;;;;;3.97;68.23;100632.23;1380287;90;22237;-75
2024/03/19 07:20:10;;;;;;;16.43;9.90;;;;;;;4.15;68.86;100632.80;1371591;90;22125;-77
2024/03/19 07:22:37;;;;;;;17.47;9.90;;;;;;;4.18;66.75;100625.20;1368848;90;21383;-77
2024/03/19 07:25:05;;;;;;;16.27;11.20;;;;;;;4.34;66.01;100633.70;1378050;90;22066;-76
2024/03/19 07:27:33;;;;;;;17.03;10.40;;;;;;;4.45;66.10;100637.76;1526853;90;22323;-75
2024/03/19 07:30:00;;;;;;;15.67;9.63;;;;;;;4.51;65.00;100632.09;1370633;90;21575;-75
2024/03/19 07:32:26;;;;;;;16.27;10.30;;;;;;;4.56;65.13;100637.04;1361586;91;21531;-76
2024/03/19 07:34:52;;;;;;;14.00;9.10;;;;;;;4.81;65.99;100634.91;1440712;90;21487;-75
2024/03/19 07:37:18;;;;;;;13.03;8.67;;;;;;;5.01;65.06;100637.94;1421474;92;21508;-75
2024/03/19 07:39:45;;;;;;;14.87;9.30;;;;;;;5.07;62.22;100646.69;1447739;90;21456;-75
2024/03/19 07:42:11;;;;;;;12.73;8.23;;;;;;;5.07;61.13;100648.00;1441072;90;22381;-75
2024/03/19 07:44:38;;;;;;;11.07;7.83;;;;;;;5.12;59.32;100649.81;1442997;90;21664;-75
2024/03/19 07:47:07;;;;;;;11.27;5.90;;;;;;;5.24;58.70;100654.22;1445254;90;22515;-75
2024/03/19 07:49:33;;;;;;;8.17;5.40;;;;;;;5.32;58.22;100658.91;1423651;90;21670;-75
2024/03/19 07:51:59;;;;;;;10.93;6.10;;;;;;;5.32;54.67;100665.02;1441551;90;21508;-78
2024/03/19 07:54:27;;;;;;;7.30;5.60;;;;;;;5.38;55.49;100652.77;1445948;90;21600;-75
2024/03/19 07:56:55;;;;;;;10.63;6.93;;;;;;;5.58;56.14;100651.81;1437862;90;21772;-75
2024/03/19 07:59:22;;;;;;;11.97;7.63;;;;;;;5.72;55.32;100656.07;1430612;91;22396;-75
2024/03/19 08:01:49;;;;;;;11.10;6.67;;;;;;;5.82;55.89;100655.30;1430542;91;21420;-75
2024/03/19 08:04:15;;;;;;;8.83;6.20;;;;;;;5.99;55.36;100657.22;1430630;91;21786;-77
2024/03/19 08:06:44;;;;;;;11.33;6.60;;;;;;;5.89;53.80;100653.89;1439648;91;21568;-75
2024/03/19 08:09:15;;;;;;;9.67;6.20;;;;;;;5.76;54.95;100659.69;1460077;89;21865;-74
2024/03/19 08:11:41;;;;;;;;;;;;;;;5.61;55.10;100662.09;1469687;88;21904;-75
2024/03/19 08:14:08;;;;;;;7.50;5.93;;;;;;;5.45;53.53;100666.78;1468517;89;20432;-75
2024/03/19 08:16:36;;;;;;;7.43;5.10;;;;;;;5.48;53.71;100665.24;1420586;91;21608;-76
2024/03/19 08:19:03;;;;;;;9.40;6.40;;;;;;;5.47;54.53;100674.05;1466271;88;22018;-76
2024/03/19 08:21:29;;;;;;;11.43;7.10;;;;;;;5.22;54.32;100679.72;1465581;89;21486;-75
2024/03/19 08:23:57;;;;;;;9.50;7.03;;;;;;;5.06;55.19;100679.09;1445539;89;21449;-76
2024/03/19 08:26:23;;;;;;;11.57;7.63;;;;;;;5.02;55.05;100671.09;1465238;89;22367;-76
2024/03/19 08:28:49;;;;;;;11.47;7.30;;;;;;;5.21;55.36;100674.13;1467695;88;21681;-75
2024/03/19 08:31:15;;;;;;;9.27;6.83;;;;;;;5.51;55.77;100672.90;1465262;89;21680;-76
2024/03/19 08:33:42;;;;;;;9.23;7.20;;;;;;;5.71;54.32;100669.69;1412588;91;21598;-77
2024/03/19 08:36:09;;;;;;;9.13;6.43;;;;;;;5.57;53.46;100677.71;1467612;89;21515;-77
2024/03/19 08:38:35;;;;;;;8.77;5.70;;;;;;;5.65;53.13;100675.38;1468905;88;21645;-75
2024/03/19 08:41:04;;;;;;;10.03;6.80;;;;;;;5.46;52.83;100680.25;1466056;88;21857;-75
2024/03/19 08:43:30;;;;;;;10.60;6.60;;;;;;;5.68;53.05;100675.16;1389579;89;21420;-75
2024/03/19 08:45:56;;;;;;;10.67;6.53;;;;;;;5.83;52.91;100673.21;1393658;88;21590;-75
2024/03/19 08:48:24;;;;;;;11.23;7.53;;;;;;;5.71;50.62;100665.74;1391610;89;22235;-75
2024/03/19 08:50:50;;;;;;;12.90;6.10;;;;;;;5.87;51.25;100665.01;1389823;89;21420;-74
2024/03/19 08:53:17;;;;;;;12.17;7.63;;;;;;;6.21;51.19;100656.45;1391749;88;21383;-74
2024/03/19 08:55:43;;;;;;;8.13;5.93;;;;;;;6.60;52.84;100661.84;1392004;89;21347;-77
2024/03/19 08:58:09;;;;;;;9.23;6.43;;;;;;;6.93;49.36;100668.09;1403539;91;21575;-76
2024/03/19 09:00:41;;;;;;;10.90;7.47;;;;;;;6.82;48.62;100664.99;1464304;88;21582;-76
2024/03/19 09:03:08;;;;;;;13.00;6.73;;;;;;;6.44;48.69;100668.71;1466392;88;21686;-75
2024/03/19 09:05:35;;;;;;;8.50;6.63;;;;;;;6.04;48.79;100670.83;1469701;89;21427;-75
2024/03/19 09:08:01;;;;;;;10.57;7.03;;;;;;;6.27;49.59;100667.82;1416995;92;21561;-75
2024/03/19 09:10:27;;;;;;;12.87;7.63;;;;;;;6.54;50.80;100674.14;1470923;88;21583;-75
2024/03/19 09:12:54;;;;;;;10.83;7.10;;;;;;;6.56;49.84;100670.92;1414337;92;21427;-73
2024/03/19 09:15:22;;;;;;;9.63;6.57;;;;;;;6.40;48.74;100676.97;1464946;89;22329;-77
2024/03/19 09:17:48;;;;;;;10.90;6.77;;;;;;;6.28;48.87;100674.29;1466547;89;21514;-75
2024/03/19 09:20:14;;;;;;;9.40;6.70;;;;;;;5.99;49.65;100675.61;1471140;88;21695;-76
2024/03/19 09:22:41;;;;;;;10.93;7.30;;;;;;;5.92;49.73;100682.21;1467759;88;21405;-76
2024/03/19 09:25:09;;;;;;;12.20;8.07;;;;;;;5.98;51.26;100687.05;1465557;88;21419;-76
2024/03/19 09:27:39;;;;;;;17.27;8.80;;;;;;;5.92;51.38;100682.21;1412991;92;21590;-75
2024/03/19 09:30:04;;;;;;;10.53;7.13;;;;;;;5.69;51.66;100693.89;1465233;88;21494;-77
2024/03/19 09:32:31;;;;;;;9.80;6.77;;;;;;;5.55;52.07;100695.34;1343232;92;21539;-76
2024/03/19 09:34:58;;;;;;;8.50;6.10;;;;;;;5.55;50.73;100687.47;1391393;88;22266;-76
2024/03/19 09:37:24;;;;;;;10.53;7.30;;;;;;;6.02;51.27;100685.89;1391118;89;22293;-75
2024/03/19 09:39:50;;;;;;;11.17;7.30;;;;;;;6.50;51.36;100680.11;1391660;88;21524;-75
2024/03/19 09:42:20;;;;;;;11.50;7.63;;;;;;;6.92;50.64;100673.01;1391738;89;21399;-75
2024/03/19 09:44:48;;;;;;;10.58;7.42;;;;;;;7.28;50.54;100685.13;1386941;88;22294;-76
2024/03/19 09:47:16;;;;;;;13.37;8.80;;;;;;;7.74;50.96;100680.61;1396498;89;21518;-77
2024/03/19 09:49:43;;;;;;;13.30;9.50;;;;;;;7.75;50.12;100682.31;1389707;89;22204;-75
2024/03/19 09:52:09;;;;;;;10.30;7.20;;;;;;;7.09;50.75;100693.59;1391267;88;21468;-75
2024/03/19 09:54:36;;;;;;;10.63;7.63;;;;;;;6.70;49.85;100694.84;1404459;89;21428;-76
2024/03/19 09:57:05;;;;;;;9.97;8.43;;;;;;;6.57;50.36;100692.80;1467631;88;22461;-75
2024/03/19 09:59:32;;;;;;;10.53;8.07;;;;;;;6.80;51.50;100689.73;1483650;88;21603;-75
2024/03/19 10:01:59;;;;;;;12.53;7.03;;;;;;;6.95;49.67;100692.02;1480597;88;21515;-75
2024/03/19 10:04:27;;;;;;;10.33;7.90;;;;;;;6.78;49.17;100689.36;1480765;88;21604;-73
2024/03/19 10:06:53;;;;;;;12.43;8.33;;;;;;;6.76;49.63;100686.03;1434878;91;21626;-72
2024/03/19 10:09:19;;;;;;;9.67;6.47;;;;;;;6.99;49.91;100680.77;1479970;88;21508;-76
2024/03/19 10:11:46;;;;;;;9.03;6.83;;;;;;;7.02;49.47;100684.52;1480407;88;21537;-75
2024/03/19 10:14:13;;;;;;;11.47;7.87;;;;;;;7.35;50.28;100677.56;1481735;88;21478;-75
2024/03/19 10:16:50;;;;;;;12.60;8.23;;;;;;;7.54;49.52;100683.06;1458613;88;21543;-75
2024/03/19 10:19:12;;;;;;;10.73;7.20;;;;;;;7.44;48.82;100685.56;1480178;88;21508;-76
2024/03/19 10:21:39;;;;;;;10.90;7.40;;;;;;;6.97;48.96;100678.77;1483629;88;21448;-75
2024/03/19 10:24:16;;;;;;;8.97;6.57;;;;;;;6.96;49.67;100686.28;1480995;88;21427;-75
2024/03/19 10:26:44;;;;;;;9.93;6.90;;;;;;;7.19;49.33;100680.09;1482107;88;21448;-75
2024/03/19 10:29:14;;;;;;;11.37;8.27;;;;;;;7.53;50.98;100678.73;1480317;88;22637;-76
2024/03/19 10:31:46;;;;;;;11.60;9.00;;;;;;;7.62;49.71;100686.39;1479296;88;22918;-75
2024/03/19 10:34:19;;;;;;;12.50;8.60;;;;;;;7.35;50.02;100677.09;1476962;88;22320;-75
2024/03/19 10:36:49;;;;;;;10.73;7.60;;;;;;;7.33;50.12;100683.42;1357752;91;21361;-75
2024/03/19 10:39:16;;;;;;;10.53;7.63;;;;;;;7.24;48.51;100679.23;1400617;88;21360;-74
2024/03/19 10:41:46;;;;;;;14.03;7.97;;;;;;;7.51;50.42;100670.59;1401964;88;21531;-75
2024/03/19 10:44:17;;;;;;;10.73;8.17;;;;;;;7.33;49.35;100679.48;1399658;88;21427;-75
2024/03/19 10:46:46;;;;;;;9.83;6.97;;;;;;;7.15;49.34;100673.38;1400910;88;21426;-77
2024/03/19 10:49:26;;;;;;;10.00;6.90;;;;;;;7.47;49.83;100680.55;1401124;88;22202;-74
2024/03/19 10:51:53;;;;;;;12.33;7.47;;;;;;;7.93;50.22;100670.27;1510781;91;22338;-74
2024/03/19 10:54:23;;;;;;;10.60;7.67;;;;;;;7.82;49.40;100679.52;1399521;88;21330;-74
2024/03/19 10:56:49;;;;;;;11.23;8.53;;;;;;;7.63;48.66;100678.38;1358461;91;21427;-75
2024/03/19 10:59:17;;;;;;;9.50;7.27;;;;;;;7.37;48.90;100679.12;1554979;88;21567;-75
2024/03/19 11:01:48;;;;;;;11.70;7.87;;;;;;;7.58;49.77;100676.58;1413190;88;21493;-76
2024/03/19 11:04:14;;;;;;;10.53;7.77;;;;;;;7.81;49.60;100670.78;1485347;91;22411;-75
2024/03/19 11:06:42;;;;;;;10.40;7.07;;;;;;;8.23;48.98;100675.30;1565400;88;21315;-75
2024/03/19 11:09:19;;;;;;;12.90;7.73;;;;;;;8.08;47.77;100678.72;1360587;91;22204;-74
2024/03/19 11:12:00;;;;;;;11.77;6.70;;;;;;;8.24;48.71;100673.88;1400160;88;21449;-75
2024/03/19 11:14:29;;;;;;;12.13;6.67;;;;;;;8.44;46.86;100666.98;1513663;91;22227;-75
2024/03/19 11:16:56;;;;;;;8.83;6.63;;;;;;;8.56;46.88;100668.59;1400483;88;22278;-74
2024/03/19 11:19:30;;;;;;;11.93;7.63;;;;;;;8.54;47.17;100675.78;1408134;88;21323;-75
2024/03/19 11:21:58;;;;;;;9.47;7.23;;;;;;;8.12;46.47;100659.91;1565391;88;21412;-74
2024/03/19 11:24:40;;;;;;;8.20;6.87;;;;;;;8.15;47.06;100665.41;1401554;88;21346;-74
2024/03/19 11:27:06;;;;;;;9.87;7.37;;;;;;;8.27;46.83;100647.73;1565417;88;21279;-75
2024/03/19 11:29:37;;;;;;;8.50;6.73;;;;;;;8.50;46.58;100658.55;1450881;88;21456;-75
2024/03/19 11:32:07;;;;;;;9.28;6.95;;;;;;;8.88;45.66;100651.83;1432651;91;22359;-75